sensor_id;sensor_type;location;lat;lon;timestamp;temperature;humidity
12268;DHT22;6196;48.398;11.736;2024-01-27T00:02:08;2.20;99.90
12268;DHT22;6196;48.398;11.736;2024-01-27T00:04:38;2.00;99.90
12268;DHT22;6196;48.398;11.736;2024-01-27T00:07:05;1.90;99.90
12268;DHT22;6196;48.398;11.736;2024-01-27T00:09:32;1.90;99.90
12268;DHT22;6196;48.398;11.736;2024-01-27T00:11:59;2.00;99.90
12268;DHT22;6196;48.398;11.736;2024-01-27T00:14:27;2.00;99.90
12268;DHT22;6196;48.398;11.736;2024-01-27T00:16:54;1.90;99.90
12268;DHT22;6196;48.398;11.736;2024-01-27T00:19:21;1.90;99.90
12268;DHT22;6196;48.398;11.736;2024-01-27T00:21:48;1.90;99.90
12268;DHT22;6196;48.398;11.736;2024-01-27T00:24:15;1.80;99.90
12268;DHT22;6196;48.398;11.736;2024-01-27T00:26:43;1.80;99.90
12268;DHT22;6196;48.398;11.736;2024-01-27T00:29:11;1.70;99.90
12268;DHT22;6196;48.398;11.736;2024-01-27T00:31:38;1.70;99.90
12268;DHT22;6196;48.398;11.736;2024-01-27T00:34:04;1.70;99.90
12268;DHT22;6196;48.398;11.736;2024-01-27T00:36:32;1.80;99.90
12268;DHT22;6196;48.398;11.736;2024-01-27T00:38:59;1.80;99.90
12268;DHT22;6196;48.398;11.736;2024-01-27T00:41:26;1.70;99.90
12268;DHT22;6196;48.398;11.736;2024-01-27T00:43:53;1.70;99.90
12268;DHT22;6196;48.398;11.736;2024-01-27T00:46:20;1.60;99.90
12268;DHT22;6196;48.398;11.736;2024-01-27T00:48:47;1.60;99.90
12268;DHT22;6196;48.398;11.736;2024-01-27T00:51:14;1.60;99.90
12268;DHT22;6196;48.398;11.736;2024-01-27T00:53:41;1.60;99.90
12268;DHT22;6196;48.398;11.736;2024-01-27T00:56:08;1.50;99.90
12268;DHT22;6196;48.398;11.736;2024-01-27T00:58:35;1.40;99.90
12268;DHT22;6196;48.398;11.736;2024-01-27T01:01:02;1.50;99.90
12268;DHT22;6196;48.398;11.736;2024-01-27T01:03:30;1.60;99.90
12268;DHT22;6196;48.398;11.736;2024-01-27T01:05:57;1.60;99.90
12268;DHT22;6196;48.398;11.736;2024-01-27T01:08:24;1.80;99.90
12268;DHT22;6196;48.398;11.736;2024-01-27T01:10:51;1.60;99.90
12268;DHT22;6196;48.398;11.736;2024-01-27T01:13:18;1.60;99.90
12268;DHT22;6196;48.398;11.736;2024-01-27T01:15:45;1.60;99.90
12268;DHT22;6196;48.398;11.736;2024-01-27T01:18:11;1.50;99.90
12268;DHT22;6196;48.398;11.736;2024-01-27T01:20:39;1.40;99.90
12268;DHT22;6196;48.398;11.736;2024-01-27T01:23:06;1.40;99.90
12268;DHT22;6196;48.398;11.736;2024-01-27T01:25:33;1.40;99.90
12268;DHT22;6196;48.398;11.736;2024-01-27T01:27:59;1.30;99.90
12268;DHT22;6196;48.398;11.736;2024-01-27T01:30:26;1.30;99.90
12268;DHT22;6196;48.398;11.736;2024-01-27T01:32:53;1.40;99.90
12268;DHT22;6196;48.398;11.736;2024-01-27T01:35:21;1.30;99.90
12268;DHT22;6196;48.398;11.736;2024-01-27T01:37:47;1.30;99.90
12268;DHT22;6196;48.398;11.736;2024-01-27T01:40:15;1.20;99.90
12268;DHT22;6196;48.398;11.736;2024-01-27T01:42:42;1.30;99.90
12268;DHT22;6196;48.398;11.736;2024-01-27T01:45:12;1.30;99.90
12268;DHT22;6196;48.398;11.736;2024-01-27T01:47:39;1.20;99.90
12268;DHT22;6196;48.398;11.736;2024-01-27T01:50:08;1.20;99.90
12268;DHT22;6196;48.398;11.736;2024-01-27T01:52:36;1.20;99.90
12268;DHT22;6196;48.398;11.736;2024-01-27T01:55:04;1.20;99.90
12268;DHT22;6196;48.398;11.736;2024-01-27T01:57:33;1.20;99.90
12268;DHT22;6196;48.398;11.736;2024-01-27T02:00:00;1.20;99.90
12268;DHT22;6196;48.398;11.736;2024-01-27T02:02:27;1.20;99.90
12268;DHT22;6196;48.398;11.736;2024-01-27T02:04:54;1.20;99.90
12268;DHT22;6196;48.398;11.736;2024-01-27T02:07:21;1.20;99.90
12268;DHT22;6196;48.398;11.736;2024-01-27T02:09:48;1.10;99.90
12268;DHT22;6196;48.398;11.736;2024-01-27T02:12:15;1.20;99.90
12268;DHT22;6196;48.398;11.736;2024-01-27T02:14:42;1.10;99.90
12268;DHT22;6196;48.398;11.736;2024-01-27T02:17:09;1.10;99.90
12268;DHT22;6196;48.398;11.736;2024-01-27T02:19:36;1.10;99.90
12268;DHT22;6196;48.398;11.736;2024-01-27T02:22:03;1.10;99.90
12268;DHT22;6196;48.398;11.736;2024-01-27T02:24:30;1.10;99.90
12268;DHT22;6196;48.398;11.736;2024-01-27T02:26:57;1.10;99.90
12268;DHT22;6196;48.398;11.736;2024-01-27T02:29:24;1.10;99.90
12268;DHT22;6196;48.398;11.736;2024-01-27T02:31:54;1.10;99.90
12268;DHT22;6196;48.398;11.736;2024-01-27T02:34:22;1.10;99.90
12268;DHT22;6196;48.398;11.736;2024-01-27T02:36:49;1.00;99.90
12268;DHT22;6196;48.398;11.736;2024-01-27T02:39:16;1.00;99.90
12268;DHT22;6196;48.398;11.736;2024-01-27T02:41:43;1.00;99.90
12268;DHT22;6196;48.398;11.736;2024-01-27T02:44:10;1.00;99.90
12268;DHT22;6196;48.398;11.736;2024-01-27T02:46:37;1.00;99.90
12268;DHT22;6196;48.398;11.736;2024-01-27T02:49:04;1.00;99.90
12268;DHT22;6196;48.398;11.736;2024-01-27T02:51:31;0.90;99.90
12268;DHT22;6196;48.398;11.736;2024-01-27T02:53:58;0.90;99.90
12268;DHT22;6196;48.398;11.736;2024-01-27T02:56:25;0.90;99.90
12268;DHT22;6196;48.398;11.736;2024-01-27T02:58:52;0.90;99.90
12268;DHT22;6196;48.398;11.736;2024-01-27T03:01:19;0.90;99.90
12268;DHT22;6196;48.398;11.736;2024-01-27T03:03:46;0.90;99.90
12268;DHT22;6196;48.398;11.736;2024-01-27T03:06:14;0.90;99.90
12268;DHT22;6196;48.398;11.736;2024-01-27T03:08:41;0.80;99.90
12268;DHT22;6196;48.398;11.736;2024-01-27T03:11:08;0.80;99.90
12268;DHT22;6196;48.398;11.736;2024-01-27T03:13:35;0.80;99.90
12268;DHT22;6196;48.398;11.736;2024-01-27T03:16:02;0.80;99.90
12268;DHT22;6196;48.398;11.736;2024-01-27T03:18:29;0.80;99.90
12268;DHT22;6196;48.398;11.736;2024-01-27T03:20:56;0.80;99.90
12268;DHT22;6196;48.398;11.736;2024-01-27T03:23:23;0.90;99.90
12268;DHT22;6196;48.398;11.736;2024-01-27T03:25:50;0.90;99.90
12268;DHT22;6196;48.398;11.736;2024-01-27T03:28:16;0.80;99.90
12268;DHT22;6196;48.398;11.736;2024-01-27T03:30:43;0.80;99.90
12268;DHT22;6196;48.398;11.736;2024-01-27T03:33:10;0.80;99.90
12268;DHT22;6196;48.398;11.736;2024-01-27T03:35:39;0.80;99.90
12268;DHT22;6196;48.398;11.736;2024-01-27T03:38:06;0.80;99.90
12268;DHT22;6196;48.398;11.736;2024-01-27T03:40:33;0.80;99.90
12268;DHT22;6196;48.398;11.736;2024-01-27T03:43:01;0.70;99.90
12268;DHT22;6196;48.398;11.736;2024-01-27T03:45:27;0.70;99.90
12268;DHT22;6196;48.398;11.736;2024-01-27T03:47:54;0.70;99.90
12268;DHT22;6196;48.398;11.736;2024-01-27T03:50:22;0.70;99.90
12268;DHT22;6196;48.398;11.736;2024-01-27T03:52:48;0.60;99.90
12268;DHT22;6196;48.398;11.736;2024-01-27T03:55:15;0.50;99.90
12268;DHT22;6196;48.398;11.736;2024-01-27T03:57:42;0.60;99.90
12268;DHT22;6196;48.398;11.736;2024-01-27T04:00:10;0.50;99.90
12268;DHT22;6196;48.398;11.736;2024-01-27T04:02:39;0.50;99.90
12268;DHT22;6196;48.398;11.736;2024-01-27T04:05:06;0.50;99.90
12268;DHT22;6196;48.398;11.736;2024-01-27T04:07:33;0.50;99.90
12268;DHT22;6196;48.398;11.736;2024-01-27T04:10:02;0.40;99.90
12268;DHT22;6196;48.398;11.736;2024-01-27T04:12:30;0.50;99.90
12268;DHT22;6196;48.398;11.736;2024-01-27T04:14:58;0.40;99.90
12268;DHT22;6196;48.398;11.736;2024-01-27T04:17:26;0.40;99.90
12268;DHT22;6196;48.398;11.736;2024-01-27T04:19:53;0.40;99.90
12268;DHT22;6196;48.398;11.736;2024-01-27T04:22:20;0.40;99.90
12268;DHT22;6196;48.398;11.736;2024-01-27T04:24:47;0.40;99.90
12268;DHT22;6196;48.398;11.736;2024-01-27T04:27:14;0.30;99.90
12268;DHT22;6196;48.398;11.736;2024-01-27T04:29:41;0.30;99.90
12268;DHT22;6196;48.398;11.736;2024-01-27T04:32:08;0.30;99.90
12268;DHT22;6196;48.398;11.736;2024-01-27T04:34:35;0.20;99.90
12268;DHT22;6196;48.398;11.736;2024-01-27T04:37:02;0.20;99.90
12268;DHT22;6196;48.398;11.736;2024-01-27T04:39:29;0.10;99.90
12268;DHT22;6196;48.398;11.736;2024-01-27T04:41:56;0.10;99.90
12268;DHT22;6196;48.398;11.736;2024-01-27T04:44:23;0.10;99.90
12268;DHT22;6196;48.398;11.736;2024-01-27T04:46:50;0.10;99.90
12268;DHT22;6196;48.398;11.736;2024-01-27T04:49:17;0.10;99.90
12268;DHT22;6196;48.398;11.736;2024-01-27T04:51:44;0.10;99.90
12268;DHT22;6196;48.398;11.736;2024-01-27T04:54:11;0.10;99.90
12268;DHT22;6196;48.398;11.736;2024-01-27T04:56:38;0.10;99.90
12268;DHT22;6196;48.398;11.736;2024-01-27T04:59:05;0.00;99.90
12268;DHT22;6196;48.398;11.736;2024-01-27T05:01:32;0.00;99.90
12268;DHT22;6196;48.398;11.736;2024-01-27T05:03:59;0.00;99.90
12268;DHT22;6196;48.398;11.736;2024-01-27T05:06:27;0.00;99.90
12268;DHT22;6196;48.398;11.736;2024-01-27T05:08:54;0.00;99.90
12268;DHT22;6196;48.398;11.736;2024-01-27T05:11:31;0.00;99.90
12268;DHT22;6196;48.398;11.736;2024-01-27T05:13:59;0.00;99.90
12268;DHT22;6196;48.398;11.736;2024-01-27T05:16:28;-0.10;99.90
12268;DHT22;6196;48.398;11.736;2024-01-27T05:18:55;0.00;99.90
12268;DHT22;6196;48.398;11.736;2024-01-27T05:21:22;-0.10;99.90
12268;DHT22;6196;48.398;11.736;2024-01-27T05:23:49;0.00;99.90
12268;DHT22;6196;48.398;11.736;2024-01-27T05:26:16;-0.10;99.90
12268;DHT22;6196;48.398;11.736;2024-01-27T05:28:43;-0.10;99.90
12268;DHT22;6196;48.398;11.736;2024-01-27T05:31:10;-0.10;99.90
12268;DHT22;6196;48.398;11.736;2024-01-27T05:33:38;-0.10;99.90
12268;DHT22;6196;48.398;11.736;2024-01-27T05:36:06;-0.20;99.90
12268;DHT22;6196;48.398;11.736;2024-01-27T05:38:33;-0.20;99.90
12268;DHT22;6196;48.398;11.736;2024-01-27T05:41:03;-0.10;99.90
12268;DHT22;6196;48.398;11.736;2024-01-27T05:43:30;-0.20;99.90
12268;DHT22;6196;48.398;11.736;2024-01-27T05:45:57;-0.20;99.90
12268;DHT22;6196;48.398;11.736;2024-01-27T05:48:24;-0.20;99.90
12268;DHT22;6196;48.398;11.736;2024-01-27T05:50:59;-0.20;99.90
12268;DHT22;6196;48.398;11.736;2024-01-27T05:53:27;-0.20;99.90
12268;DHT22;6196;48.398;11.736;2024-01-27T05:55:55;-0.30;99.90
12268;DHT22;6196;48.398;11.736;2024-01-27T05:58:23;-0.20;99.90
12268;DHT22;6196;48.398;11.736;2024-01-27T06:00:50;-0.30;99.90
12268;DHT22;6196;48.398;11.736;2024-01-27T06:03:17;-0.30;99.90
12268;DHT22;6196;48.398;11.736;2024-01-27T06:05:44;-0.40;99.90
12268;DHT22;6196;48.398;11.736;2024-01-27T06:08:11;-0.40;99.90
12268;DHT22;6196;48.398;11.736;2024-01-27T06:10:39;-0.40;99.90
12268;DHT22;6196;48.398;11.736;2024-01-27T06:13:05;-0.40;99.90
12268;DHT22;6196;48.398;11.736;2024-01-27T06:15:32;-0.50;99.90
12268;DHT22;6196;48.398;11.736;2024-01-27T06:18:00;-0.40;99.90
12268;DHT22;6196;48.398;11.736;2024-01-27T06:20:27;-0.50;99.90
12268;DHT22;6196;48.398;11.736;2024-01-27T06:22:54;-0.50;99.90
12268;DHT22;6196;48.398;11.736;2024-01-27T06:25:21;-0.50;99.90
12268;DHT22;6196;48.398;11.736;2024-01-27T06:27:48;-0.50;99.90
12268;DHT22;6196;48.398;11.736;2024-01-27T06:30:15;-0.50;99.90
12268;DHT22;6196;48.398;11.736;2024-01-27T06:32:43;-0.50;99.90
12268;DHT22;6196;48.398;11.736;2024-01-27T06:35:10;-0.40;99.90
12268;DHT22;6196;48.398;11.736;2024-01-27T06:37:37;-0.50;99.90
12268;DHT22;6196;48.398;11.736;2024-01-27T06:40:04;-0.50;99.90
12268;DHT22;6196;48.398;11.736;2024-01-27T06:42:32;-0.50;99.90
12268;DHT22;6196;48.398;11.736;2024-01-27T06:44:59;-0.50;99.90
12268;DHT22;6196;48.398;11.736;2024-01-27T06:47:26;-0.50;99.90
12268;DHT22;6196;48.398;11.736;2024-01-27T06:49:53;-0.60;99.90
12268;DHT22;6196;48.398;11.736;2024-01-27T06:52:20;-0.60;99.90
12268;DHT22;6196;48.398;11.736;2024-01-27T06:54:47;-0.60;99.90
12268;DHT22;6196;48.398;11.736;2024-01-27T06:57:21;-0.70;99.90
12268;DHT22;6196;48.398;11.736;2024-01-27T06:59:51;-0.70;99.90
12268;DHT22;6196;48.398;11.736;2024-01-27T07:02:23;-0.70;99.90
12268;DHT22;6196;48.398;11.736;2024-01-27T07:04:50;-0.70;99.90
12268;DHT22;6196;48.398;11.736;2024-01-27T07:07:19;-0.60;99.90
12268;DHT22;6196;48.398;11.736;2024-01-27T07:09:49;-0.60;99.90
12268;DHT22;6196;48.398;11.736;2024-01-27T07:12:15;-0.50;99.90
12268;DHT22;6196;48.398;11.736;2024-01-27T07:14:42;-0.30;99.90
12268;DHT22;6196;48.398;11.736;2024-01-27T07:17:09;-0.20;99.90
12268;DHT22;6196;48.398;11.736;2024-01-27T07:19:36;-0.10;99.90
12268;DHT22;6196;48.398;11.736;2024-01-27T07:22:03;0.10;99.90
12268;DHT22;6196;48.398;11.736;2024-01-27T07:24:30;0.30;99.90
12268;DHT22;6196;48.398;11.736;2024-01-27T07:27:00;0.50;99.90
12268;DHT22;6196;48.398;11.736;2024-01-27T07:29:28;0.80;99.90
12268;DHT22;6196;48.398;11.736;2024-01-27T07:31:55;1.00;99.90
12268;DHT22;6196;48.398;11.736;2024-01-27T07:34:22;1.20;99.90
12268;DHT22;6196;48.398;11.736;2024-01-27T07:36:49;1.20;99.90
12268;DHT22;6196;48.398;11.736;2024-01-27T07:39:16;1.20;99.90
12268;DHT22;6196;48.398;11.736;2024-01-27T07:41:43;1.20;99.90
12268;DHT22;6196;48.398;11.736;2024-01-27T07:44:11;1.30;99.90
12268;DHT22;6196;48.398;11.736;2024-01-27T07:46:40;1.60;99.90
12268;DHT22;6196;48.398;11.736;2024-01-27T07:49:08;1.90;99.90
12268;DHT22;6196;48.398;11.736;2024-01-27T07:51:35;2.30;99.90
12268;DHT22;6196;48.398;11.736;2024-01-27T07:54:02;2.80;99.90
12268;DHT22;6196;48.398;11.736;2024-01-27T07:56:29;3.30;99.90
12268;DHT22;6196;48.398;11.736;2024-01-27T07:58:57;3.60;99.90
12268;DHT22;6196;48.398;11.736;2024-01-27T08:01:24;4.00;99.90
12268;DHT22;6196;48.398;11.736;2024-01-27T08:03:51;4.30;99.90
12268;DHT22;6196;48.398;11.736;2024-01-27T08:06:28;4.60;99.90
12268;DHT22;6196;48.398;11.736;2024-01-27T08:08:58;4.60;99.90
12268;DHT22;6196;48.398;11.736;2024-01-27T08:11:26;4.50;99.90
12268;DHT22;6196;48.398;11.736;2024-01-27T08:13:53;4.50;99.90
12268;DHT22;6196;48.398;11.736;2024-01-27T08:16:20;4.70;99.90
12268;DHT22;6196;48.398;11.736;2024-01-27T08:18:48;5.00;99.90
12268;DHT22;6196;48.398;11.736;2024-01-27T08:21:15;5.60;99.90
12268;DHT22;6196;48.398;11.736;2024-01-27T08:23:42;5.90;99.90
12268;DHT22;6196;48.398;11.736;2024-01-27T08:26:09;6.40;99.90
12268;DHT22;6196;48.398;11.736;2024-01-27T08:28:36;6.60;99.90
12268;DHT22;6196;48.398;11.736;2024-01-27T08:31:03;6.00;99.90
12268;DHT22;6196;48.398;11.736;2024-01-27T08:33:30;5.60;99.90
12268;DHT22;6196;48.398;11.736;2024-01-27T08:35:57;5.60;99.90
12268;DHT22;6196;48.398;11.736;2024-01-27T08:38:24;5.70;99.90
12268;DHT22;6196;48.398;11.736;2024-01-27T08:40:51;5.00;99.90
12268;DHT22;6196;48.398;11.736;2024-01-27T08:43:19;4.70;99.90
12268;DHT22;6196;48.398;11.736;2024-01-27T08:45:45;5.40;99.90
12268;DHT22;6196;48.398;11.736;2024-01-27T08:48:12;6.00;99.90
12268;DHT22;6196;48.398;11.736;2024-01-27T08:50:40;6.40;99.90
12268;DHT22;6196;48.398;11.736;2024-01-27T08:53:07;6.10;99.90
12268;DHT22;6196;48.398;11.736;2024-01-27T08:55:34;6.10;99.90
12268;DHT22;6196;48.398;11.736;2024-01-27T08:58:00;7.00;99.90
12268;DHT22;6196;48.398;11.736;2024-01-27T09:00:27;6.20;99.90
12268;DHT22;6196;48.398;11.736;2024-01-27T09:02:54;7.00;99.90
12268;DHT22;6196;48.398;11.736;2024-01-27T09:05:21;6.60;99.90
12268;DHT22;6196;48.398;11.736;2024-01-27T09:07:49;6.60;99.90
12268;DHT22;6196;48.398;11.736;2024-01-27T09:10:15;6.80;99.90
12268;DHT22;6196;48.398;11.736;2024-01-27T09:12:42;7.00;99.90
12268;DHT22;6196;48.398;11.736;2024-01-27T09:15:10;7.30;99.90
12268;DHT22;6196;48.398;11.736;2024-01-27T09:17:37;7.50;99.90
12268;DHT22;6196;48.398;11.736;2024-01-27T09:20:05;7.90;99.90
12268;DHT22;6196;48.398;11.736;2024-01-27T09:22:32;8.40;99.90
12268;DHT22;6196;48.398;11.736;2024-01-27T09:24:59;9.10;99.90
12268;DHT22;6196;48.398;11.736;2024-01-27T09:27:26;8.80;99.90
12268;DHT22;6196;48.398;11.736;2024-01-27T09:29:53;8.80;99.90
12268;DHT22;6196;48.398;11.736;2024-01-27T09:32:20;8.50;99.90
12268;DHT22;6196;48.398;11.736;2024-01-27T09:34:47;8.70;99.90
12268;DHT22;6196;48.398;11.736;2024-01-27T09:37:14;8.80;99.90
12268;DHT22;6196;48.398;11.736;2024-01-27T09:39:41;8.90;99.90
12268;DHT22;6196;48.398;11.736;2024-01-27T09:42:13;9.10;99.90
12268;DHT22;6196;48.398;11.736;2024-01-27T09:44:48;9.10;99.90
12268;DHT22;6196;48.398;11.736;2024-01-27T09:47:16;9.10;99.90
12268;DHT22;6196;48.398;11.736;2024-01-27T09:49:43;9.40;99.90
12268;DHT22;6196;48.398;11.736;2024-01-27T09:52:11;9.80;99.90
12268;DHT22;6196;48.398;11.736;2024-01-27T09:54:40;10.00;99.90
12268;DHT22;6196;48.398;11.736;2024-01-27T09:57:09;10.10;99.90
12268;DHT22;6196;48.398;11.736;2024-01-27T09:59:41;10.20;99.90
12268;DHT22;6196;48.398;11.736;2024-01-27T10:02:11;10.60;99.90
12268;DHT22;6196;48.398;11.736;2024-01-27T10:04:41;10.70;99.90
12268;DHT22;6196;48.398;11.736;2024-01-27T10:07:08;10.90;99.90
12268;DHT22;6196;48.398;11.736;2024-01-27T10:09:35;10.70;99.90
12268;DHT22;6196;48.398;11.736;2024-01-27T10:12:03;11.40;99.90
12268;DHT22;6196;48.398;11.736;2024-01-27T10:14:41;11.40;99.90
12268;DHT22;6196;48.398;11.736;2024-01-27T10:17:11;11.10;99.90
12268;DHT22;6196;48.398;11.736;2024-01-27T10:19:38;11.40;99.90
12268;DHT22;6196;48.398;11.736;2024-01-27T10:22:11;11.80;99.90
12268;DHT22;6196;48.398;11.736;2024-01-27T10:24:38;11.10;99.90
12268;DHT22;6196;48.398;11.736;2024-01-27T10:27:06;11.20;99.90
12268;DHT22;6196;48.398;11.736;2024-01-27T10:29:33;11.80;99.90
12268;DHT22;6196;48.398;11.736;2024-01-27T10:32:09;11.70;99.90
12268;DHT22;6196;48.398;11.736;2024-01-27T10:34:37;11.70;99.90
12268;DHT22;6196;48.398;11.736;2024-01-27T10:37:04;12.10;99.90
12268;DHT22;6196;48.398;11.736;2024-01-27T10:39:31;12.10;99.90
12268;DHT22;6196;48.398;11.736;2024-01-27T10:42:01;11.40;99.90
12268;DHT22;6196;48.398;11.736;2024-01-27T10:44:30;12.00;99.90
12268;DHT22;6196;48.398;11.736;2024-01-27T10:47:01;12.10;99.90
12268;DHT22;6196;48.398;11.736;2024-01-27T10:49:31;12.00;99.90
12268;DHT22;6196;48.398;11.736;2024-01-27T10:52:06;12.10;99.90
12268;DHT22;6196;48.398;11.736;2024-01-27T10:54:37;11.80;99.90
12268;DHT22;6196;48.398;11.736;2024-01-27T10:57:07;12.70;99.90
12268;DHT22;6196;48.398;11.736;2024-01-27T10:59:35;12.40;99.90
12268;DHT22;6196;48.398;11.736;2024-01-27T11:02:03;12.60;99.90
12268;DHT22;6196;48.398;11.736;2024-01-27T11:04:32;12.20;99.90
12268;DHT22;6196;48.398;11.736;2024-01-27T11:07:03;11.80;99.90
12268;DHT22;6196;48.398;11.736;2024-01-27T11:09:31;11.60;99.90
12268;DHT22;6196;48.398;11.736;2024-01-27T11:12:00;11.90;99.90
12268;DHT22;6196;48.398;11.736;2024-01-27T11:14:28;12.30;99.90
12268;DHT22;6196;48.398;11.736;2024-01-27T11:16:56;12.80;99.90
12268;DHT22;6196;48.398;11.736;2024-01-27T11:19:23;12.80;99.90
12268;DHT22;6196;48.398;11.736;2024-01-27T11:22:03;12.80;99.90
12268;DHT22;6196;48.398;11.736;2024-01-27T11:24:30;12.20;99.90
12268;DHT22;6196;48.398;11.736;2024-01-27T11:27:02;12.60;99.90
12268;DHT22;6196;48.398;11.736;2024-01-27T11:29:29;12.70;99.90
12268;DHT22;6196;48.398;11.736;2024-01-27T11:32:02;12.80;99.90
12268;DHT22;6196;48.398;11.736;2024-01-27T11:34:47;13.20;99.90
12268;DHT22;6196;48.398;11.736;2024-01-27T11:37:15;12.90;99.90
12268;DHT22;6196;48.398;11.736;2024-01-27T11:39:43;13.70;99.90
12268;DHT22;6196;48.398;11.736;2024-01-27T11:42:11;12.40;99.90
12268;DHT22;6196;48.398;11.736;2024-01-27T11:44:41;12.80;99.90
12268;DHT22;6196;48.398;11.736;2024-01-27T11:47:18;14.20;99.90
12268;DHT22;6196;48.398;11.736;2024-01-27T11:49:53;14.60;99.90
12268;DHT22;6196;48.398;11.736;2024-01-27T11:52:22;14.80;99.90
12268;DHT22;6196;48.398;11.736;2024-01-27T11:54:57;14.80;99.90
12268;DHT22;6196;48.398;11.736;2024-01-27T11:57:25;14.90;99.90
12268;DHT22;6196;48.398;11.736;2024-01-27T11:59:53;14.00;99.90
12268;DHT22;6196;48.398;11.736;2024-01-27T12:02:20;14.40;99.90
12268;DHT22;6196;48.398;11.736;2024-01-27T12:04:48;14.20;99.90
12268;DHT22;6196;48.398;11.736;2024-01-27T12:07:15;14.80;99.90
12268;DHT22;6196;48.398;11.736;2024-01-27T12:09:48;15.40;99.90
12268;DHT22;6196;48.398;11.736;2024-01-27T12:12:16;15.60;99.90
12268;DHT22;6196;48.398;11.736;2024-01-27T12:14:50;15.10;98.50
12268;DHT22;6196;48.398;11.736;2024-01-27T12:17:19;15.60;99.90
12268;DHT22;6196;48.398;11.736;2024-01-27T12:19:51;16.40;99.90
12268;DHT22;6196;48.398;11.736;2024-01-27T12:22:28;17.30;98.20
12268;DHT22;6196;48.398;11.736;2024-01-27T12:25:11;16.20;98.40
12268;DHT22;6196;48.398;11.736;2024-01-27T12:27:40;17.00;97.90
12268;DHT22;6196;48.398;11.736;2024-01-27T12:30:08;16.30;98.00
12268;DHT22;6196;48.398;11.736;2024-01-27T12:32:35;16.70;96.70
12268;DHT22;6196;48.398;11.736;2024-01-27T12:35:06;17.10;97.60
12268;DHT22;6196;48.398;11.736;2024-01-27T12:37:35;15.90;97.10
12268;DHT22;6196;48.398;11.736;2024-01-27T12:40:02;16.60;96.00
12268;DHT22;6196;48.398;11.736;2024-01-27T12:42:34;16.70;96.90
12268;DHT22;6196;48.398;11.736;2024-01-27T12:45:01;16.90;94.90
12268;DHT22;6196;48.398;11.736;2024-01-27T12:47:28;15.90;96.90
12268;DHT22;6196;48.398;11.736;2024-01-27T12:49:55;18.00;95.90
12268;DHT22;6196;48.398;11.736;2024-01-27T12:52:23;17.00;94.90
12268;DHT22;6196;48.398;11.736;2024-01-27T12:54:51;17.20;93.80
12268;DHT22;6196;48.398;11.736;2024-01-27T12:57:18;18.00;94.30
12268;DHT22;6196;48.398;11.736;2024-01-27T12:59:46;18.40;93.40
12268;DHT22;6196;48.398;11.736;2024-01-27T13:02:13;17.70;92.70
12268;DHT22;6196;48.398;11.736;2024-01-27T13:04:41;15.50;94.10
12268;DHT22;6196;48.398;11.736;2024-01-27T13:07:09;15.00;95.90
12268;DHT22;6196;48.398;11.736;2024-01-27T13:09:36;15.50;95.90
12268;DHT22;6196;48.398;11.736;2024-01-27T13:12:06;15.00;96.00
12268;DHT22;6196;48.398;11.736;2024-01-27T13:14:33;15.90;96.50
12268;DHT22;6196;48.398;11.736;2024-01-27T13:17:00;17.10;94.50
12268;DHT22;6196;48.398;11.736;2024-01-27T13:19:27;18.00;94.40
12268;DHT22;6196;48.398;11.736;2024-01-27T13:21:54;18.80;93.60
12268;DHT22;6196;48.398;11.736;2024-01-27T13:24:21;18.40;91.10
12268;DHT22;6196;48.398;11.736;2024-01-27T13:26:49;16.90;93.90
12268;DHT22;6196;48.398;11.736;2024-01-27T13:29:16;18.50;93.10
12268;DHT22;6196;48.398;11.736;2024-01-27T13:31:43;20.90;91.60
12268;DHT22;6196;48.398;11.736;2024-01-27T13:34:10;21.10;90.00
12268;DHT22;6196;48.398;11.736;2024-01-27T13:36:37;21.60;89.60
12268;DHT22;6196;48.398;11.736;2024-01-27T13:39:04;22.00;87.40
12268;DHT22;6196;48.398;11.736;2024-01-27T13:41:31;22.20;84.40
12268;DHT22;6196;48.398;11.736;2024-01-27T13:43:58;23.00;82.90
12268;DHT22;6196;48.398;11.736;2024-01-27T13:46:25;23.30;80.00
12268;DHT22;6196;48.398;11.736;2024-01-27T13:48:52;22.90;77.70
12268;DHT22;6196;48.398;11.736;2024-01-27T13:51:20;23.10;76.60
12268;DHT22;6196;48.398;11.736;2024-01-27T13:53:47;23.50;74.60
12268;DHT22;6196;48.398;11.736;2024-01-27T13:56:15;24.00;74.30
12268;DHT22;6196;48.398;11.736;2024-01-27T13:58:42;24.30;72.90
12268;DHT22;6196;48.398;11.736;2024-01-27T14:01:10;24.30;70.00
12268;DHT22;6196;48.398;11.736;2024-01-27T14:03:37;22.60;70.80
12268;DHT22;6196;48.398;11.736;2024-01-27T14:06:05;22.00;72.30
12268;DHT22;6196;48.398;11.736;2024-01-27T14:08:33;22.60;72.10
12268;DHT22;6196;48.398;11.736;2024-01-27T14:11:00;22.20;74.00
12268;DHT22;6196;48.398;11.736;2024-01-27T14:13:27;21.80;72.00
12268;DHT22;6196;48.398;11.736;2024-01-27T14:15:54;20.80;73.90
12268;DHT22;6196;48.398;11.736;2024-01-27T14:18:21;21.40;73.60
12268;DHT22;6196;48.398;11.736;2024-01-27T14:20:49;18.10;72.40
12268;DHT22;6196;48.398;11.736;2024-01-27T14:23:17;16.20;78.80
12268;DHT22;6196;48.398;11.736;2024-01-27T14:25:44;16.70;80.70
12268;DHT22;6196;48.398;11.736;2024-01-27T14:28:14;17.50;77.90
12268;DHT22;6196;48.398;11.736;2024-01-27T14:30:41;15.60;82.00
12268;DHT22;6196;48.398;11.736;2024-01-27T14:33:11;15.40;81.90
12268;DHT22;6196;48.398;11.736;2024-01-27T14:35:39;15.60;82.40
12268;DHT22;6196;48.398;11.736;2024-01-27T14:38:07;17.50;82.10
12268;DHT22;6196;48.398;11.736;2024-01-27T14:40:36;17.10;81.50
12268;DHT22;6196;48.398;11.736;2024-01-27T14:43:04;16.30;80.30
12268;DHT22;6196;48.398;11.736;2024-01-27T14:45:35;16.80;84.40
12268;DHT22;6196;48.398;11.736;2024-01-27T14:48:03;18.20;80.80
12268;DHT22;6196;48.398;11.736;2024-01-27T14:50:31;19.70;76.00
12268;DHT22;6196;48.398;11.736;2024-01-27T14:52:59;20.70;76.10
12268;DHT22;6196;48.398;11.736;2024-01-27T14:55:28;20.50;75.80
12268;DHT22;6196;48.398;11.736;2024-01-27T14:57:57;18.80;76.40
12268;DHT22;6196;48.398;11.736;2024-01-27T15:00:24;18.30;79.70
12268;DHT22;6196;48.398;11.736;2024-01-27T15:02:51;18.60;79.20
12268;DHT22;6196;48.398;11.736;2024-01-27T15:05:18;19.00;78.40
12268;DHT22;6196;48.398;11.736;2024-01-27T15:07:46;19.00;78.50
12268;DHT22;6196;48.398;11.736;2024-01-27T15:10:13;18.20;79.10
12268;DHT22;6196;48.398;11.736;2024-01-27T15:12:41;17.70;79.80
12268;DHT22;6196;48.398;11.736;2024-01-27T15:15:08;16.70;81.20
12268;DHT22;6196;48.398;11.736;2024-01-27T15:17:36;15.80;81.30
12268;DHT22;6196;48.398;11.736;2024-01-27T15:20:04;14.70;83.40
12268;DHT22;6196;48.398;11.736;2024-01-27T15:22:31;13.70;84.30
12268;DHT22;6196;48.398;11.736;2024-01-27T15:24:58;13.20;87.70
12268;DHT22;6196;48.398;11.736;2024-01-27T15:27:25;12.90;88.00
12268;DHT22;6196;48.398;11.736;2024-01-27T15:29:52;12.40;89.30
12268;DHT22;6196;48.398;11.736;2024-01-27T15:32:22;11.30;91.00
12268;DHT22;6196;48.398;11.736;2024-01-27T15:34:50;10.50;93.00
12268;DHT22;6196;48.398;11.736;2024-01-27T15:37:18;9.80;94.40
12268;DHT22;6196;48.398;11.736;2024-01-27T15:39:45;9.20;95.00
12268;DHT22;6196;48.398;11.736;2024-01-27T15:42:13;8.50;96.30